createdAt,value
2022-11-29T00:01:22.240Z,95.75
2022-11-29T00:03:20.763Z,96.29
2022-11-29T00:05:19.118Z,96.79
2022-11-29T00:07:17.278Z,95.97
2022-11-29T00:09:15.609Z,95.33
2022-11-29T00:11:36.024Z,95.78
2022-11-29T00:13:34.832Z,95.73
2022-11-29T00:15:36.965Z,95.23
2022-11-29T00:17:35.183Z,95.92
2022-11-29T00:19:34.756Z,96.16
2022-11-29T00:21:33.226Z,96.53
2022-11-29T00:23:31.523Z,95.88
2022-11-29T00:25:29.727Z,95.51
2022-11-29T00:27:27.924Z,94.72
2022-11-29T00:29:28.885Z,94.60
2022-11-29T00:31:30.373Z,93.87
2022-11-29T00:33:29.247Z,93.47
2022-11-29T00:35:27.455Z,92.59
2022-11-29T00:37:25.711Z,92.10
2022-11-29T00:39:24.027Z,91.89
2022-11-29T00:41:22.601Z,92.08
2022-11-29T00:43:20.885Z,91.85
2022-11-29T00:45:20.715Z,91.86
2022-11-29T00:47:18.879Z,91.79
2022-11-29T00:49:17.414Z,92.16
2022-11-29T00:51:15.652Z,93.10
2022-11-29T00:53:14.045Z,92.98
2022-11-29T00:55:12.330Z,92.21
2022-11-29T00:57:10.491Z,91.51
2022-11-29T00:59:08.905Z,91.03
2022-11-29T01:01:08.599Z,91.12
2022-11-29T01:03:09.930Z,90.70
2022-11-29T01:05:08.699Z,90.61
2022-11-29T01:07:07.024Z,91.16
2022-11-29T01:09:05.929Z,91.75
2022-11-29T01:11:10.440Z,91.74
2022-11-29T01:13:09.097Z,91.96
2022-11-29T01:15:09.228Z,91.76
2022-11-29T01:17:08.921Z,92.03
2022-11-29T01:19:08.033Z,92.20
2022-11-29T01:21:08.453Z,92.22
2022-11-29T01:23:06.708Z,91.78
2022-11-29T01:25:05.894Z,91.83
2022-11-29T01:27:04.119Z,92.40
2022-11-29T01:29:02.374Z,91.85
2022-11-29T01:31:00.852Z,92.46
2022-11-29T01:33:00.556Z,92.79
2022-11-29T01:34:58.812Z,92.81
2022-11-29T01:36:57.073Z,93.39
2022-11-29T01:38:55.455Z,93.13
2022-11-29T01:41:02.073Z,92.23
2022-11-29T01:43:00.417Z,92.34
2022-11-29T01:45:06.376Z,92.43
2022-11-29T01:47:04.826Z,92.45
2022-11-29T01:49:11.448Z,92.43
2022-11-29T01:51:09.925Z,92.22
2022-11-29T01:53:09.970Z,92.41
2022-11-29T01:55:10.674Z,92.28
2022-11-29T01:57:10.449Z,92.34
2022-11-29T01:59:13.056Z,92.31
2022-11-29T02:01:11.953Z,92.29
2022-11-29T02:03:12.705Z,92.23
2022-11-29T02:05:15.179Z,92.65
2022-11-29T02:07:13.350Z,92.62
2022-11-29T02:09:19.665Z,92.74
2022-11-29T02:11:42.934Z,93.22
2022-11-29T02:13:54.146Z,93.07
2022-11-29T02:16:00.540Z,92.67
2022-11-29T02:18:07.109Z,92.44
2022-11-29T02:20:33.765Z,92.10
2022-11-29T02:22:37.220Z,92.88
2022-11-29T02:25:07.880Z,93.43
2022-11-29T02:27:27.063Z,92.92
2022-11-29T02:29:38.901Z,93.20
2022-11-29T02:32:34.101Z,93.20
2022-11-29T02:35:02.329Z,92.99
2022-11-29T02:37:17.283Z,93.15
2022-11-29T02:39:53.783Z,93.61
2022-11-29T02:42:16.075Z,93.11
2022-11-29T02:44:42.576Z,93.34
2022-11-29T02:46:52.562Z,93.42
2022-11-29T02:48:56.977Z,93.69
2022-11-29T02:51:00.317Z,92.94
2022-11-29T02:53:07.388Z,93.32
2022-11-29T02:55:10.954Z,93.70
2022-11-29T02:57:20.625Z,93.63
2022-11-29T02:59:35.962Z,94.07
2022-11-29T03:01:41.542Z,93.93
2022-11-29T03:03:45.899Z,93.32
2022-11-29T03:05:51.925Z,93.42
2022-11-29T03:08:00.304Z,93.11
2022-11-29T03:10:06.552Z,93.23
2022-11-29T03:12:14.241Z,93.78
2022-11-29T03:14:18.699Z,93.55
2022-11-29T03:16:26.917Z,93.31
2022-11-29T03:18:43.000Z,93.53
2022-11-29T03:20:55.355Z,93.61
2022-11-29T03:23:15.091Z,93.82
2022-11-29T03:25:21.958Z,93.23
2022-11-29T03:27:25.401Z,93.36
2022-11-29T03:29:29.004Z,93.41
2022-11-29T03:31:31.237Z,93.58
2022-11-29T03:33:36.949Z,93.08
2022-11-29T03:35:42.308Z,93.78
2022-11-29T03:37:51.404Z,93.24
2022-11-29T03:39:57.617Z,93.74
2022-11-29T03:42:01.140Z,93.53
2022-11-29T03:44:08.234Z,93.85
2022-11-29T03:46:10.121Z,93.68
2022-11-29T03:48:14.543Z,93.30
2022-11-29T03:50:17.795Z,93.63
2022-11-29T03:52:23.153Z,92.86
2022-11-29T03:54:27.366Z,93.26
2022-11-29T03:56:31.677Z,93.45
2022-11-29T03:58:55.497Z,93.22
2022-11-29T04:01:16.712Z,93.67
2022-11-29T04:03:34.487Z,93.72
2022-11-29T04:05:56.292Z,94.14
2022-11-29T04:08:29.965Z,94.50
2022-11-29T04:11:01.871Z,93.96
2022-11-29T04:13:37.131Z,93.91
2022-11-29T04:16:10.851Z,94.37
2022-11-29T04:18:31.452Z,94.28
2022-11-29T04:20:51.122Z,93.94
2022-11-29T04:23:19.323Z,93.74
2022-11-29T04:26:06.593Z,93.54
2022-11-29T04:28:23.051Z,93.58
2022-11-29T04:30:22.974Z,93.24
2022-11-29T04:33:04.668Z,93.66
2022-11-29T04:35:29.081Z,93.60
2022-11-29T04:37:50.548Z,93.72
2022-11-29T04:40:05.795Z,94.39
2022-11-29T04:42:33.028Z,94.17
2022-11-29T04:45:09.700Z,94.50
2022-11-29T04:47:26.735Z,94.50
2022-11-29T04:49:42.915Z,94.41
2022-11-29T04:52:03.949Z,94.71
2022-11-29T04:54:10.478Z,94.04
2022-11-29T04:56:19.163Z,93.98
2022-11-29T04:58:26.630Z,94.92
2022-11-29T05:00:27.316Z,94.51
2022-11-29T05:02:34.594Z,93.76
2022-11-29T05:04:42.435Z,93.86
2022-11-29T05:06:51.250Z,93.61
2022-11-29T05:08:57.220Z,93.79
2022-11-29T05:11:02.359Z,93.94
2022-11-29T05:13:10.763Z,94.34
2022-11-29T05:15:28.952Z,94.33
2022-11-29T05:17:39.715Z,94.43
2022-11-29T05:20:24.315Z,94.96
2022-11-29T05:22:29.783Z,94.87
2022-11-29T05:24:48.073Z,94.35
2022-11-29T05:26:55.977Z,94.01
2022-11-29T05:29:01.513Z,94.16
2022-11-29T05:31:31.257Z,94.28
2022-11-29T05:33:49.040Z,94.46
2022-11-29T05:35:55.316Z,94.17
2022-11-29T05:37:57.258Z,94.44
2022-11-29T05:40:21.899Z,94.16
2022-11-29T05:42:46.107Z,94.00
2022-11-29T05:44:49.698Z,94.54
2022-11-29T05:46:56.413Z,94.38
2022-11-29T05:49:04.251Z,94.51
2022-11-29T05:51:15.729Z,94.31
2022-11-29T05:53:23.071Z,94.00
2022-11-29T05:55:33.204Z,93.59
2022-11-29T05:57:42.791Z,93.56
2022-11-29T05:59:45.020Z,93.72
2022-11-29T06:01:51.458Z,93.29
2022-11-29T06:03:58.337Z,93.61
2022-11-29T06:06:00.818Z,93.96
2022-11-29T06:08:07.166Z,94.15
2022-11-29T06:10:12.785Z,93.90
2022-11-29T06:12:20.772Z,94.12
2022-11-29T06:14:40.274Z,96.43
2022-11-29T06:17:25.838Z,94.73
2022-11-29T06:20:00.623Z,91.36
2022-11-29T06:22:15.092Z,90.26
2022-11-29T06:24:36.206Z,90.56
2022-11-29T06:27:04.977Z,89.49
2022-11-29T06:29:25.454Z,89.33
2022-11-29T06:31:29.590Z,90.39
2022-11-29T06:33:45.243Z,90.40
2022-11-29T06:35:49.661Z,90.93
2022-11-29T06:37:53.307Z,90.72
2022-11-29T06:39:52.165Z,89.26
2022-11-29T06:41:51.506Z,88.99
2022-11-29T06:43:51.113Z,89.39
2022-11-29T06:45:52.777Z,89.64
2022-11-29T06:47:58.220Z,89.97
2022-11-29T06:50:04.231Z,89.97
2022-11-29T06:52:16.034Z,90.09
2022-11-29T06:54:26.564Z,89.82
2022-11-29T06:56:32.824Z,90.01
2022-11-29T06:58:47.216Z,90.32
2022-11-29T07:00:56.002Z,89.68
2022-11-29T07:03:21.171Z,88.48
2022-11-29T07:05:24.892Z,87.46
2022-11-29T07:07:25.157Z,86.06
2022-11-29T07:09:28.024Z,85.29
2022-11-29T07:11:26.957Z,85.84
2022-11-29T07:13:25.713Z,84.79
2022-11-29T07:15:24.889Z,84.92
2022-11-29T07:17:28.837Z,86.00
2022-11-29T07:19:37.153Z,85.22
2022-11-29T07:21:48.515Z,84.69
2022-11-29T07:23:57.339Z,85.75
2022-11-29T07:26:10.752Z,84.84
2022-11-29T07:28:23.672Z,85.08
2022-11-29T07:30:24.298Z,85.41
2022-11-29T07:32:35.790Z,85.50
2022-11-29T07:34:44.391Z,84.96
2022-11-29T07:36:54.332Z,85.47
2022-11-29T07:39:10.362Z,86.20
2022-11-29T07:41:17.089Z,86.13
2022-11-29T07:43:27.994Z,84.84
2022-11-29T07:45:31.950Z,84.82
2022-11-29T07:47:35.428Z,84.92
2022-11-29T07:49:33.944Z,83.87
2022-11-29T07:51:32.891Z,83.49
2022-11-29T07:53:31.558Z,83.80
2022-11-29T07:55:33.229Z,83.66
2022-11-29T07:57:31.653Z,83.30
2022-11-29T07:59:37.328Z,83.16
2022-11-29T08:01:35.785Z,83.00
2022-11-29T08:03:35.650Z,82.83
2022-11-29T08:05:33.898Z,83.16
2022-11-29T08:07:34.944Z,84.23
2022-11-29T08:09:33.492Z,83.95
2022-11-29T08:11:32.942Z,83.91
2022-11-29T08:13:31.237Z,84.06
2022-11-29T08:15:29.502Z,83.67
2022-11-29T08:17:27.864Z,82.87
2022-11-29T08:19:26.132Z,82.71
2022-11-29T08:21:24.469Z,83.04
2022-11-29T08:23:22.965Z,83.04
2022-11-29T08:25:21.357Z,82.82
2022-11-29T08:27:20.886Z,83.12
2022-11-29T08:29:19.700Z,83.25
2022-11-29T08:31:19.007Z,82.46
2022-11-29T08:33:17.623Z,82.95
2022-11-29T08:35:15.854Z,82.64
2022-11-29T08:37:14.156Z,82.18
2022-11-29T08:39:12.601Z,82.59
2022-11-29T08:41:12.781Z,83.12
2022-11-29T08:43:12.331Z,82.98
2022-11-29T08:45:12.085Z,82.03
2022-11-29T08:47:28.786Z,82.86
2022-11-29T08:49:27.090Z,82.51
2022-11-29T08:51:25.489Z,82.46
2022-11-29T08:53:43.348Z,82.90
2022-11-29T08:55:46.856Z,81.64
2022-11-29T08:57:45.529Z,81.81
2022-11-29T08:59:45.540Z,81.02
2022-11-29T09:01:45.004Z,81.70
2022-11-29T09:04:02.919Z,80.95
2022-11-29T09:06:11.971Z,81.16
2022-11-29T09:08:10.760Z,81.25
2022-11-29T09:10:10.776Z,82.19
2022-11-29T09:12:09.813Z,81.23
2022-11-29T09:14:09.944Z,81.84
2022-11-29T09:16:12.419Z,81.94
2022-11-29T09:18:10.890Z,82.19
2022-11-29T09:20:10.308Z,81.72
2022-11-29T09:22:08.633Z,81.95
2022-11-29T09:24:08.025Z,81.38
2022-11-29T09:26:07.234Z,82.18
2022-11-29T09:28:05.830Z,82.59
2022-11-29T09:30:04.486Z,81.90
2022-11-29T09:32:04.305Z,81.87
2022-11-29T09:34:02.900Z,82.72
2022-11-29T09:36:01.356Z,83.11
2022-11-29T09:37:59.528Z,82.68
2022-11-29T09:39:57.946Z,82.84
2022-11-29T09:42:17.263Z,82.72
2022-11-29T09:44:30.886Z,82.74
2022-11-29T09:46:39.809Z,82.56
2022-11-29T09:49:11.404Z,83.05
2022-11-29T09:51:20.184Z,83.21
2022-11-29T09:53:34.711Z,81.95
2022-11-29T09:55:47.281Z,81.59
2022-11-29T09:57:46.217Z,82.21
2022-11-29T09:59:49.036Z,82.29
2022-11-29T10:01:53.277Z,82.26
2022-11-29T10:03:54.407Z,81.82
2022-11-29T10:05:58.802Z,82.18
2022-11-29T10:07:59.906Z,82.53
2022-11-29T10:10:04.945Z,82.18
2022-11-29T10:12:13.782Z,81.47
2022-11-29T10:14:18.066Z,82.04
2022-11-29T10:16:23.723Z,82.01
2022-11-29T10:18:27.347Z,82.46
2022-11-29T10:20:28.290Z,82.43
2022-11-29T10:22:39.671Z,82.38
2022-11-29T10:24:40.202Z,82.42
2022-11-29T10:26:39.067Z,82.55
2022-11-29T10:28:38.531Z,82.70
2022-11-29T10:30:37.672Z,82.87
2022-11-29T10:32:36.076Z,84.03
2022-11-29T10:34:34.527Z,83.97
2022-11-29T10:36:39.639Z,82.35
2022-11-29T10:38:39.511Z,81.93
2022-11-29T10:40:40.983Z,82.49
2022-11-29T10:42:53.280Z,82.49
2022-11-29T10:44:51.448Z,82.48
2022-11-29T10:46:49.821Z,82.36
2022-11-29T10:48:48.244Z,82.50
2022-11-29T10:50:49.573Z,82.35
2022-11-29T10:52:47.922Z,82.21
2022-11-29T10:54:51.043Z,82.52
2022-11-29T10:56:49.882Z,82.51
2022-11-29T10:58:56.316Z,82.81
2022-11-29T11:00:57.497Z,82.76
2022-11-29T11:02:56.076Z,82.41
2022-11-29T11:04:54.801Z,82.43
2022-11-29T11:06:56.345Z,83.17
2022-11-29T11:08:56.968Z,83.84
2022-11-29T11:11:01.817Z,84.42
2022-11-29T11:13:06.777Z,84.71
2022-11-29T11:15:17.496Z,84.68
2022-11-29T11:17:21.541Z,84.88
2022-11-29T11:19:29.302Z,85.43
2022-11-29T11:21:29.633Z,85.69
2022-11-29T11:23:30.874Z,85.54
2022-11-29T11:25:31.871Z,84.79
2022-11-29T11:27:37.302Z,84.96
2022-11-29T11:29:39.062Z,85.82
2022-11-29T11:31:39.029Z,85.94
2022-11-29T11:33:39.248Z,85.91
2022-11-29T11:35:37.499Z,85.77
2022-11-29T11:37:36.571Z,85.88
2022-11-29T11:39:34.979Z,85.84
2022-11-29T11:41:53.539Z,86.50
2022-11-29T11:44:06.981Z,86.01
2022-11-29T11:46:10.017Z,86.32
2022-11-29T11:48:16.338Z,85.82
2022-11-29T11:50:17.319Z,85.99
2022-11-29T11:52:21.603Z,85.65
2022-11-29T11:54:19.875Z,85.73
2022-11-29T11:56:18.526Z,85.96
2022-11-29T11:58:20.763Z,86.22
2022-11-29T12:03:06.441Z,86.72
2022-11-29T12:05:11.338Z,85.96
2022-11-29T12:07:19.075Z,85.32
2022-11-29T12:09:28.503Z,85.49
2022-11-29T12:11:28.156Z,85.11
2022-11-29T12:13:31.760Z,85.04
2022-11-29T12:15:34.187Z,84.23
2022-11-29T12:17:38.367Z,84.68
2022-11-29T12:19:45.147Z,84.80
2022-11-29T12:21:47.892Z,86.72
2022-11-29T12:23:50.899Z,84.76
2022-11-29T12:25:53.279Z,84.18
2022-11-29T12:27:51.632Z,83.74
2022-11-29T12:29:49.843Z,84.00
2022-11-29T12:32:00.706Z,84.41
2022-11-29T12:34:07.338Z,84.07
2022-11-29T12:36:19.800Z,82.55
2022-11-29T12:38:32.147Z,81.74
2022-11-29T12:40:40.517Z,81.96
2022-11-29T12:42:50.326Z,81.35
2022-11-29T12:44:57.990Z,80.89
2022-11-29T12:49:27.436Z,81.39
2022-11-29T12:51:34.705Z,81.49
2022-11-29T12:53:52.749Z,81.30
2022-11-29T12:55:57.307Z,81.37
2022-11-29T12:58:06.084Z,81.36
2022-11-29T13:00:11.871Z,81.08
2022-11-29T13:02:31.708Z,81.19
2022-11-29T13:04:40.326Z,80.80
2022-11-29T13:06:48.933Z,81.26
2022-11-29T13:09:03.672Z,81.10
2022-11-29T13:11:10.791Z,81.27
2022-11-29T13:13:20.874Z,80.88
2022-11-29T13:15:21.444Z,81.71
2022-11-29T13:17:30.961Z,81.50
2022-11-29T13:19:40.187Z,82.11
2022-11-29T13:21:45.360Z,82.23
2022-11-29T13:26:11.217Z,82.97
2022-11-29T13:28:18.273Z,82.93
2022-11-29T13:30:17.392Z,82.71
2022-11-29T13:32:32.985Z,81.95
2022-11-29T13:34:40.129Z,81.75
2022-11-29T13:36:50.825Z,82.03
2022-11-29T13:38:58.469Z,81.75
2022-11-29T13:41:02.673Z,82.38
2022-11-29T13:43:06.245Z,82.26
2022-11-29T13:45:16.502Z,82.98
2022-11-29T13:47:17.368Z,83.22
2022-11-29T13:49:23.755Z,83.37
2022-11-29T13:51:27.159Z,83.23
2022-11-29T13:53:27.053Z,83.41
2022-11-29T13:55:31.358Z,83.80
2022-11-29T13:57:31.014Z,84.08
2022-11-29T13:59:45.802Z,83.65
2022-11-29T14:01:48.411Z,84.10
2022-11-29T14:04:01.063Z,84.16
2022-11-29T14:06:21.076Z,83.61
2022-11-29T14:08:42.163Z,84.08
2022-11-29T14:10:50.451Z,84.35
2022-11-29T14:12:51.923Z,84.82
2022-11-29T14:14:53.574Z,84.46
2022-11-29T14:16:54.759Z,85.09
2022-11-29T14:19:26.749Z,85.01
2022-11-29T14:22:07.362Z,85.20
2022-11-29T14:24:38.960Z,86.50
2022-11-29T14:26:38.668Z,86.45
2022-11-29T14:28:39.159Z,86.42
2022-11-29T14:30:51.689Z,86.28
2022-11-29T14:33:00.721Z,85.72
2022-11-29T14:35:05.484Z,85.68
2022-11-29T14:37:30.534Z,85.74
2022-11-29T14:39:49.171Z,86.32
2022-11-29T14:42:02.481Z,86.63
2022-11-29T14:44:15.613Z,86.30
2022-11-29T14:46:29.506Z,86.42
2022-11-29T14:48:31.326Z,86.85
2022-11-29T14:50:33.578Z,87.25
2022-11-29T14:52:35.065Z,86.75
2022-11-29T14:54:35.056Z,87.16
2022-11-29T14:56:41.728Z,87.91
2022-11-29T14:58:41.935Z,88.20
2022-11-29T15:00:54.197Z,88.11
2022-11-29T15:02:56.089Z,88.29
2022-11-29T15:04:56.645Z,88.76
2022-11-29T15:06:58.116Z,88.20
2022-11-29T15:09:03.129Z,88.68
2022-11-29T15:11:05.399Z,88.97
2022-11-29T15:13:05.653Z,88.92
2022-11-29T15:15:20.759Z,89.63
2022-11-29T15:17:28.587Z,89.82
2022-11-29T15:19:54.085Z,89.34
2022-11-29T15:22:01.082Z,89.27
2022-11-29T15:24:02.846Z,89.33
2022-11-29T15:26:04.142Z,89.11
2022-11-29T15:29:04.195Z,89.55
2022-11-29T15:31:06.724Z,89.82
2022-11-29T15:33:07.965Z,89.92
2022-11-29T15:35:18.881Z,89.17
2022-11-29T15:37:24.396Z,89.73
2022-11-29T15:39:31.608Z,90.34
2022-11-29T15:41:31.729Z,89.83
2022-11-29T15:43:35.822Z,89.44
2022-11-29T15:45:35.948Z,88.82
2022-11-29T15:47:35.721Z,89.18
2022-11-29T15:49:34.099Z,89.83
2022-11-29T15:51:38.352Z,90.34
2022-11-29T15:53:40.284Z,91.02
2022-11-29T15:55:39.241Z,90.70
2022-11-29T15:57:41.573Z,90.58
2022-11-29T15:59:43.735Z,91.08
2022-11-29T16:01:47.482Z,90.53
2022-11-29T16:03:48.580Z,91.82
2022-11-29T16:05:52.459Z,93.26
2022-11-29T16:07:55.918Z,94.24
2022-11-29T16:09:58.036Z,95.39
2022-11-29T16:11:57.556Z,94.98
2022-11-29T16:14:18.482Z,95.71
2022-11-29T16:16:20.639Z,96.03
2022-11-29T16:18:25.436Z,96.86
2022-11-29T16:20:29.845Z,97.23
2022-11-29T16:22:29.294Z,96.54
2022-11-29T16:24:28.272Z,96.03
2022-11-29T16:26:31.517Z,97.43
2022-11-29T16:28:34.117Z,98.04
2022-11-29T16:30:42.202Z,98.60
2022-11-29T16:32:47.316Z,99.22
2022-11-29T16:34:46.293Z,99.84
2022-11-29T16:36:46.312Z,100.00
2022-11-29T16:38:47.897Z,100.00
2022-11-29T16:41:03.794Z,100.00
2022-11-29T16:43:09.559Z,100.00
2022-11-29T16:45:32.528Z,100.00
2022-11-29T16:47:32.397Z,100.00
2022-11-29T16:49:37.406Z,100.00
2022-11-29T16:51:39.922Z,100.00
2022-11-29T16:53:42.357Z,100.00
2022-11-29T16:55:41.823Z,100.00
2022-11-29T16:57:40.975Z,100.00
2022-11-29T16:59:40.072Z,100.00
2022-11-29T17:01:38.246Z,100.00
2022-11-29T17:03:39.001Z,100.00
2022-11-29T17:05:44.694Z,100.00
2022-11-29T17:07:51.457Z,100.00
2022-11-29T17:09:55.096Z,100.00
2022-11-29T17:11:54.527Z,100.00
2022-11-29T17:13:55.301Z,100.00
2022-11-29T17:15:54.034Z,100.00
2022-11-29T17:17:52.865Z,100.00
2022-11-29T17:19:54.716Z,100.00
2022-11-29T17:21:58.136Z,100.00
2022-11-29T17:24:01.221Z,99.71
2022-11-29T17:26:32.305Z,99.27
2022-11-29T17:28:30.648Z,97.91
2022-11-29T17:30:30.163Z,96.54
2022-11-29T17:32:34.821Z,95.82
2022-11-29T17:34:33.572Z,97.04
2022-11-29T17:36:32.119Z,98.42
2022-11-29T17:38:30.710Z,99.21
2022-11-29T17:40:32.757Z,100.00
2022-11-29T17:42:36.272Z,100.00
2022-11-29T17:44:34.992Z,100.00
2022-11-29T17:46:37.581Z,100.00
2022-11-29T17:48:35.877Z,100.00
2022-11-29T17:50:38.517Z,100.00
2022-11-29T17:52:39.883Z,100.00
2022-11-29T17:54:38.973Z,100.00
2022-11-29T17:56:40.599Z,100.00
2022-11-29T17:58:41.629Z,100.00
2022-11-29T18:00:40.370Z,100.00
2022-11-29T18:02:38.561Z,100.00
2022-11-29T18:04:37.499Z,100.00
2022-11-29T18:06:38.091Z,99.92
2022-11-29T18:08:41.527Z,99.07
2022-11-29T18:10:42.065Z,98.95
2022-11-29T18:12:40.379Z,98.07
2022-11-29T18:14:41.532Z,98.24
2022-11-29T18:16:40.182Z,97.89
2022-11-29T18:18:41.678Z,97.55
2022-11-29T18:20:40.144Z,97.88
2022-11-29T18:22:41.261Z,97.99
2022-11-29T18:24:44.248Z,97.82
2022-11-29T18:26:43.392Z,97.59
2022-11-29T18:28:44.024Z,98.43
2022-11-29T18:30:50.613Z,99.09
2022-11-29T18:32:49.449Z,99.33
2022-11-29T18:34:50.896Z,99.67
2022-11-29T18:36:51.481Z,100.00
2022-11-29T18:38:51.257Z,100.00
2022-11-29T18:40:49.696Z,100.00
2022-11-29T18:42:47.894Z,100.00
2022-11-29T18:44:46.318Z,100.00
2022-11-29T18:46:48.955Z,100.00
2022-11-29T18:48:48.441Z,100.00
2022-11-29T18:50:46.674Z,99.49
2022-11-29T18:52:45.492Z,97.56
2022-11-29T18:54:45.173Z,96.11
2022-11-29T18:56:47.798Z,95.94
2022-11-29T18:58:58.626Z,96.95
2022-11-29T19:01:07.916Z,98.02
2022-11-29T19:03:11.466Z,98.77
2022-11-29T19:05:23.518Z,99.51
2022-11-29T19:07:25.803Z,100.00
2022-11-29T19:09:26.020Z,100.00
2022-11-29T19:11:26.269Z,100.00
2022-11-29T19:13:30.995Z,100.00
2022-11-29T19:15:34.691Z,99.88
2022-11-29T19:17:45.289Z,99.87
2022-11-29T19:19:45.235Z,99.71
2022-11-29T19:21:47.866Z,99.47
2022-11-29T19:23:55.160Z,99.44
2022-11-29T19:25:53.494Z,99.80
2022-11-29T19:27:51.742Z,100.00
2022-11-29T19:29:51.183Z,100.00
2022-11-29T19:31:50.553Z,100.00
2022-11-29T19:33:49.053Z,100.00
2022-11-29T19:35:59.887Z,99.09
2022-11-29T19:37:58.071Z,98.65
2022-11-29T19:39:57.764Z,98.92
2022-11-29T19:41:56.096Z,99.45
2022-11-29T19:43:55.369Z,99.41
2022-11-29T19:45:54.067Z,99.69
2022-11-29T19:47:52.625Z,99.77
2022-11-29T19:49:51.281Z,99.52
2022-11-29T19:51:51.402Z,99.66
2022-11-29T19:53:52.857Z,99.37
2022-11-29T19:55:50.969Z,99.24
2022-11-29T19:57:49.312Z,99.79
2022-11-29T19:59:48.049Z,99.59
2022-11-29T20:01:53.836Z,99.92
2022-11-29T20:03:53.003Z,99.75
2022-11-29T20:05:57.904Z,99.66
2022-11-29T20:07:57.798Z,99.35
2022-11-29T20:10:02.278Z,99.50
2022-11-29T20:12:03.403Z,99.16
2022-11-29T20:14:06.576Z,99.42
2022-11-29T20:16:14.802Z,99.34
2022-11-29T20:18:13.535Z,99.17
2022-11-29T20:20:15.138Z,99.18
2022-11-29T20:22:13.557Z,99.34
2022-11-29T20:24:18.220Z,99.29
2022-11-29T20:26:21.145Z,99.61
2022-11-29T20:28:24.952Z,99.62
2022-11-29T20:30:41.533Z,99.86
2022-11-29T20:32:41.155Z,100.00
2022-11-29T20:34:39.895Z,100.00
2022-11-29T20:36:53.408Z,100.00
2022-11-29T20:39:09.036Z,100.00
2022-11-29T20:41:19.487Z,100.00
2022-11-29T20:43:23.608Z,100.00
2022-11-29T20:45:24.013Z,100.00
2022-11-29T20:47:24.160Z,100.00
2022-11-29T20:49:23.229Z,100.00
2022-11-29T20:51:33.592Z,100.00
2022-11-29T20:53:42.694Z,100.00
2022-11-29T20:55:47.478Z,100.00
2022-11-29T20:57:50.220Z,100.00
2022-11-29T20:59:48.633Z,100.00
2022-11-29T21:01:49.073Z,100.00
2022-11-29T21:03:47.996Z,100.00
2022-11-29T21:05:55.189Z,100.00
2022-11-29T21:07:55.881Z,100.00
2022-11-29T21:09:59.503Z,100.00
2022-11-29T21:12:08.892Z,100.00
2022-11-29T21:14:13.030Z,100.00
2022-11-29T21:16:12.824Z,100.00
2022-11-29T21:18:21.941Z,100.00
2022-11-29T21:20:26.928Z,100.00
2022-11-29T21:22:37.972Z,100.00
2022-11-29T21:24:47.038Z,100.00
2022-11-29T21:26:52.381Z,100.00
2022-11-29T21:29:00.957Z,100.00
2022-11-29T21:31:01.659Z,100.00
2022-11-29T21:33:06.016Z,100.00
2022-11-29T21:35:07.924Z,100.00
2022-11-29T21:37:08.759Z,100.00
2022-11-29T21:39:12.469Z,100.00
2022-11-29T21:41:15.138Z,100.00
2022-11-29T21:43:15.163Z,100.00
2022-11-29T21:45:15.707Z,100.00
2022-11-29T21:47:42.801Z,100.00
2022-11-29T21:49:41.368Z,100.00
2022-11-29T21:51:41.878Z,100.00
2022-11-29T21:53:40.664Z,100.00
2022-11-29T21:55:41.530Z,100.00
2022-11-29T21:57:42.490Z,100.00
2022-11-29T21:59:40.756Z,100.00
2022-11-29T22:01:39.105Z,100.00
2022-11-29T22:03:48.207Z,100.00
2022-11-29T22:05:49.120Z,100.00
2022-11-29T22:07:47.658Z,100.00
2022-11-29T22:09:46.125Z,100.00
2022-11-29T22:11:48.709Z,100.00
2022-11-29T22:14:19.252Z,100.00
2022-11-29T22:16:17.610Z,100.00
2022-11-29T22:18:15.783Z,100.00
2022-11-29T22:20:15.914Z,100.00
2022-11-29T22:22:16.495Z,100.00
2022-11-29T22:24:16.099Z,100.00
2022-11-29T22:26:14.840Z,100.00
2022-11-29T22:28:13.660Z,100.00
2022-11-29T22:30:14.345Z,100.00
2022-11-29T22:32:14.406Z,100.00
2022-11-29T22:34:13.099Z,100.00
2022-11-29T22:36:14.026Z,100.00
2022-11-29T22:38:12.352Z,100.00
2022-11-29T22:40:11.002Z,100.00
2022-11-29T22:42:09.330Z,100.00
2022-11-29T22:44:08.617Z,100.00
2022-11-29T22:46:09.358Z,100.00
2022-11-29T22:48:09.324Z,100.00
2022-11-29T22:50:12.126Z,100.00
2022-11-29T22:52:12.308Z,100.00
2022-11-29T22:54:12.059Z,100.00
2022-11-29T22:56:14.161Z,100.00
2022-11-29T22:58:19.566Z,100.00
2022-11-29T23:00:21.304Z,100.00
2022-11-29T23:02:19.776Z,100.00
2022-11-29T23:04:17.935Z,100.00
2022-11-29T23:06:18.289Z,100.00
2022-11-29T23:08:18.054Z,100.00
2022-11-29T23:10:18.819Z,100.00
2022-11-29T23:12:17.045Z,100.00
2022-11-29T23:14:15.420Z,100.00
2022-11-29T23:20:27.577Z,100.00
2022-11-29T23:22:27.786Z,100.00
2022-11-29T23:24:28.188Z,100.00
2022-11-29T23:29:56.903Z,100.00
2022-11-29T23:31:55.848Z,100.00
2022-11-29T23:33:56.450Z,100.00
2022-11-29T23:36:01.689Z,100.00
2022-11-29T23:37:59.950Z,100.00
2022-11-29T23:40:00.114Z,100.00
2022-11-29T23:42:03.676Z,100.00
2022-11-29T23:44:03.711Z,100.00
2022-11-29T23:46:07.344Z,100.00
2022-11-29T23:48:07.858Z,100.00
2022-11-29T23:50:07.981Z,100.00
2022-11-29T23:52:06.276Z,100.00
2022-11-29T23:54:06.329Z,100.00
2022-11-29T23:56:08.036Z,100.00
2022-11-29T23:58:06.386Z,100.00
